Time;durP1;ratioP1;P1;durP2;ratioP2;P2;SDS_P1;SDS_P2;PMS_P1;PMS_P2;Temp;Humidity;BMP_temperature;BMP_pressure;BME280_temperature;BME280_humidity;BME280_pressure;Samples;Min_cycle;Max_cycle;Signal;HPM_P1;HPM_P2
2023/02/27 00:02:14;;;;;;;2.33;2.13;;;;;;;;;;5011687;28;20470;-87
2023/02/27 00:04:40;;;;;;;2.60;2.40;;;;;;;;;;5011594;28;20446;-87
2023/02/27 00:07:07;;;;;;;2.78;2.33;;;;;;;;;;5011613;28;20466;-87
2023/02/27 00:09:33;;;;;;;2.60;2.40;;;;;;;;;;5011524;28;20397;-87
2023/02/27 00:11:59;;;;;;;2.80;2.60;;;;;;;;;;5011648;28;20866;-88
2023/02/27 00:14:25;;;;;;;2.57;2.37;;;;;;;;;;5011771;28;20501;-87
2023/02/27 00:16:51;;;;;;;2.60;2.40;;;;;;;;;;5011820;28;20731;-89
2023/02/27 00:19:17;;;;;;;2.80;2.50;;;;;;;;;;5010218;28;20480;-86
2023/02/27 00:21:43;;;;;;;2.67;2.45;;;;;;;;;;5011905;28;20399;-87
2023/02/27 00:24:10;;;;;;;2.67;2.47;;;;;;;;;;5012574;28;20746;-86
2023/02/27 00:26:36;;;;;;;2.50;2.30;;;;;;;;;;5014935;28;20405;-86
2023/02/27 00:29:03;;;;;;;2.50;2.30;;;;;;;;;;5009252;28;20472;-87
2023/02/27 00:31:29;;;;;;;2.55;2.28;;;;;;;;;;5010325;28;20406;-85
2023/02/27 00:33:55;;;;;;;2.88;2.53;;;;;;;;;;5033058;28;20530;-87
2023/02/27 00:36:21;;;;;;;2.50;2.30;;;;;;;;;;5027675;28;20381;-86
2023/02/27 00:38:47;;;;;;;2.63;2.42;;;;;;;;;;5022158;28;20381;-87
2023/02/27 00:41:13;;;;;;;2.40;2.20;;;;;;;;;;5019281;28;20488;-87
2023/02/27 00:43:39;;;;;;;2.65;2.45;;;;;;;;;;5009012;28;20380;-87
2023/02/27 00:46:05;;;;;;;2.42;2.22;;;;;;;;;;5016633;28;20397;-87
2023/02/27 00:48:31;;;;;;;2.80;2.60;;;;;;;;;;5015815;28;20419;-89
2023/02/27 00:50:57;;;;;;;2.40;2.20;;;;;;;;;;4997622;28;20920;-87
2023/02/27 00:53:23;;;;;;;2.73;2.53;;;;;;;;;;4997655;28;20440;-87
2023/02/27 00:55:50;;;;;;;2.60;2.40;;;;;;;;;;5015472;28;20388;-87
2023/02/27 00:58:16;;;;;;;3.65;2.47;;;;;;;;;;5015493;28;20455;-87
2023/02/27 01:00:42;;;;;;;2.88;2.67;;;;;;;;;;4997419;28;20447;-86
2023/02/27 01:03:08;;;;;;;3.08;2.50;;;;;;;;;;5014397;28;20462;-87
2023/02/27 01:05:34;;;;;;;2.90;2.70;;;;;;;;;;4997629;28;20393;-87
2023/02/27 01:08:00;;;;;;;2.65;2.45;;;;;;;;;;5006581;28;20416;-88
2023/02/27 01:10:26;;;;;;;3.58;2.63;;;;;;;;;;4997332;28;20750;-88
2023/02/27 01:12:52;;;;;;;3.40;2.70;;;;;;;;;;4988699;28;20445;-87
2023/02/27 01:15:18;;;;;;;2.92;2.72;;;;;;;;;;5010960;28;20400;-87
2023/02/27 01:17:46;;;;;;;2.90;2.70;;;;;;;;;;5014938;28;20447;-87
2023/02/27 01:20:12;;;;;;;2.90;2.70;;;;;;;;;;5007445;28;20501;-90
2023/02/27 01:22:38;;;;;;;2.70;2.50;;;;;;;;;;4990665;28;20395;-87
2023/02/27 01:25:05;;;;;;;2.80;2.60;;;;;;;;;;5010994;28;20389;-88
2023/02/27 01:27:31;;;;;;;2.80;2.60;;;;;;;;;;5014809;28;20416;-88
2023/02/27 01:29:57;;;;;;;3.00;2.80;;;;;;;;;;5011216;28;20416;-88
2023/02/27 01:32:23;;;;;;;3.00;2.78;;;;;;;;;;5014399;28;20381;-88
2023/02/27 01:34:49;;;;;;;2.60;2.38;;;;;;;;;;5014158;28;20468;-87
2023/02/27 01:37:15;;;;;;;3.05;2.75;;;;;;;;;;5014188;28;20485;-88
2023/02/27 01:39:41;;;;;;;3.13;2.60;;;;;;;;;;5014163;28;20471;-87
2023/02/27 01:42:22;;;;;;;3.00;2.70;;;;;;;;;;5014121;28;20706;-87
2023/02/27 01:45:06;;;;;;;2.70;2.50;;;;;;;;;;5014115;28;20511;-88
2023/02/27 01:47:32;;;;;;;3.08;2.75;;;;;;;;;;5012842;28;20743;-87
2023/02/27 01:49:59;;;;;;;2.60;2.40;;;;;;;;;;5014288;28;20408;-88
2023/02/27 01:52:25;;;;;;;3.00;2.80;;;;;;;;;;5014323;28;20385;-87
2023/02/27 01:54:51;;;;;;;2.80;2.60;;;;;;;;;;5013723;28;20519;-87
2023/02/27 01:57:17;;;;;;;2.65;2.45;;;;;;;;;;5013763;28;20475;-87
2023/02/27 01:59:44;;;;;;;2.80;2.53;;;;;;;;;;5013871;28;20431;-87
2023/02/27 02:02:30;;;;;;;2.92;2.72;;;;;;;;;;5013627;28;20512;-88
2023/02/27 02:04:56;;;;;;;3.67;2.67;;;;;;;;;;4996048;28;20874;-87
2023/02/27 02:07:24;;;;;;;2.85;2.65;;;;;;;;;;5013760;28;20479;-86
2023/02/27 02:09:52;;;;;;;2.80;2.60;;;;;;;;;;5013739;28;20396;-89
2023/02/27 02:12:20;;;;;;;3.20;3.00;;;;;;;;;;5013697;28;20423;-87
2023/02/27 02:14:46;;;;;;;2.95;2.53;;;;;;;;;;5013838;28;20397;-87
2023/02/27 02:17:14;;;;;;;3.08;2.80;;;;;;;;;;5013687;28;20789;-87
2023/02/27 02:19:53;;;;;;;3.38;3.08;;;;;;;;;;5005943;28;20916;-87
2023/02/27 02:22:38;;;;;;;4.53;3.00;;;;;;;;;;5013506;28;20446;-87
2023/02/27 02:25:09;;;;;;;4.20;3.60;;;;;;;;;;5013246;28;20399;-86
2023/02/27 02:27:43;;;;;;;4.85;4.22;;;;;;;;;;5013236;28;20886;-87
2023/02/27 02:30:27;;;;;;;3.10;2.80;;;;;;;;;;5013372;28;20400;-88
2023/02/27 02:32:59;;;;;;;8.18;5.80;;;;;;;;;;5013321;28;20388;-88
2023/02/27 02:35:44;;;;;;;4.35;3.65;;;;;;;;;;4995375;28;20845;-89
2023/02/27 02:38:28;;;;;;;6.60;4.60;;;;;;;;;;5012686;28;20381;-87
2023/02/27 02:41:09;;;;;;;3.72;3.28;;;;;;;;;;5005536;28;20384;-88
2023/02/27 02:44:01;;;;;;;3.80;3.33;;;;;;;;;;5013311;28;20399;-87
2023/02/27 02:46:35;;;;;;;4.85;4.35;;;;;;;;;;5008184;28;20400;-87
2023/02/27 02:49:05;;;;;;;4.20;3.80;;;;;;;;;;5012565;28;20467;-87
2023/02/27 02:51:38;;;;;;;4.15;3.75;;;;;;;;;;5012619;28;20431;-87
2023/02/27 02:54:14;;;;;;;8.32;6.65;;;;;;;;;;5012749;28;20385;-88
2023/02/27 02:56:45;;;;;;;6.85;5.85;;;;;;;;;;5012781;28;20471;-87
2023/02/27 02:59:29;;;;;;;4.38;2.92;;;;;;;;;;4995225;28;20425;-87
2023/02/27 03:01:55;;;;;;;3.75;3.35;;;;;;;;;;4986216;28;20487;-88
2023/02/27 03:04:26;;;;;;;4.57;3.10;;;;;;;;;;5005601;28;20454;-89
2023/02/27 03:06:58;;;;;;;3.90;3.60;;;;;;;;;;5000279;28;20815;-87
2023/02/27 03:09:38;;;;;;;2.90;2.50;;;;;;;;;;4994279;28;20797;-88
2023/02/27 03:12:06;;;;;;;3.20;2.90;;;;;;;;;;5011416;28;20396;-87
2023/02/27 03:14:51;;;;;;;4.30;3.85;;;;;;;;;;5012481;28;20380;-88
2023/02/27 03:17:26;;;;;;;3.50;3.20;;;;;;;;;;5012445;28;20416;-87
2023/02/27 03:19:57;;;;;;;4.00;3.50;;;;;;;;;;5008078;28;20402;-88
2023/02/27 03:22:29;;;;;;;4.27;3.93;;;;;;;;;;5009727;28;20408;-87
2023/02/27 03:24:57;;;;;;;8.00;7.13;;;;;;;;;;5009786;28;20378;-88
2023/02/27 03:27:24;;;;;;;4.57;3.40;;;;;;;;;;5006807;28;20400;-87
2023/02/27 03:29:55;;;;;;;3.47;3.17;;;;;;;;;;4990322;28;20433;-87
2023/02/27 03:32:24;;;;;;;4.40;4.00;;;;;;;;;;4992610;28;20758;-87
2023/02/27 03:34:50;;;;;;;2.90;2.67;;;;;;;;;;4988038;28;20945;-88
2023/02/27 03:37:22;;;;;;;3.53;3.20;;;;;;;;;;5009553;28;20483;-88
2023/02/27 03:39:48;;;;;;;6.00;4.57;;;;;;;;;;5010425;28;20403;-87
2023/02/27 03:42:20;;;;;;;6.85;5.63;;;;;;;;;;5012033;28;20476;-88
2023/02/27 03:45:18;;;;;;;5.72;5.03;;;;;;;;;;5003545;28;20891;-87
2023/02/27 03:47:44;;;;;;;5.03;4.40;;;;;;;;;;4968143;28;20540;-87
2023/02/27 03:50:11;;;;;;;6.22;5.63;;;;;;;;;;4997813;28;20394;-88
2023/02/27 03:52:37;;;;;;;4.22;3.55;;;;;;;;;;5001663;28;20887;-88
2023/02/27 03:55:07;;;;;;;4.43;3.38;;;;;;;;;;4994116;28;20418;-88
2023/02/27 03:57:33;;;;;;;4.57;4.15;;;;;;;;;;4977151;28;20752;-88
2023/02/27 03:59:59;;;;;;;3.40;2.90;;;;;;;;;;4977789;28;20433;-88
2023/02/27 04:02:26;;;;;;;6.53;5.90;;;;;;;;;;4997657;28;20469;-87
2023/02/27 04:04:52;;;;;;;4.70;4.10;;;;;;;;;;4989953;28;20402;-87
2023/02/27 04:07:26;;;;;;;3.47;3.17;;;;;;;;;;4999253;28;20397;-88
2023/02/27 04:10:12;;;;;;;6.43;3.93;;;;;;;;;;5003050;28;20390;-88
2023/02/27 04:13:07;;;;;;;4.77;3.57;;;;;;;;;;5019910;28;20635;-88
2023/02/27 04:15:39;;;;;;;8.18;5.60;;;;;;;;;;5022055;28;20402;-87
2023/02/27 04:18:08;;;;;;;6.95;4.88;;;;;;;;;;5015357;28;20386;-90
2023/02/27 04:20:44;;;;;;;4.90;4.30;;;;;;;;;;5016475;28;20397;-89
2023/02/27 04:23:10;;;;;;;11.18;8.02;;;;;;;;;;5017355;28;20396;-90
2023/02/27 04:25:41;;;;;;;4.20;3.80;;;;;;;;;;5016456;28;20391;-87
2023/02/27 04:28:18;;;;;;;7.25;6.18;;;;;;;;;;5015789;28;20475;-89
2023/02/27 04:30:54;;;;;;;3.72;3.42;;;;;;;;;;5015854;28;20539;-88
2023/02/27 04:33:36;;;;;;;5.20;4.65;;;;;;;;;;4997883;28;20448;-88
2023/02/27 04:36:06;;;;;;;6.28;5.07;;;;;;;;;;5015704;28;20392;-87
2023/02/27 04:38:39;;;;;;;5.20;4.70;;;;;;;;;;4997983;28;20392;-87
2023/02/27 04:41:23;;;;;;;3.95;3.45;;;;;;;;;;5015508;28;20447;-87
2023/02/27 04:43:49;;;;;;;6.43;4.23;;;;;;;;;;5015104;28;20881;-88
2023/02/27 04:46:17;;;;;;;4.75;4.18;;;;;;;;;;4997439;28;20874;-88
2023/02/27 04:48:56;;;;;;;5.95;5.35;;;;;;;;;;5015055;28;20901;-88
2023/02/27 04:51:45;;;;;;;4.25;3.83;;;;;;;;;;4988460;28;20398;-89
2023/02/27 04:54:13;;;;;;;14.70;8.57;;;;;;;;;;4985062;28;20398;-89
2023/02/27 04:57:01;;;;;;;3.92;3.63;;;;;;;;;;5001741;28;20384;-88
2023/02/27 04:59:29;;;;;;;4.97;4.53;;;;;;;;;;4996960;28;20396;-88
2023/02/27 05:02:02;;;;;;;3.53;3.22;;;;;;;;;;5014412;28;20392;-88
2023/02/27 05:04:31;;;;;;;3.72;3.42;;;;;;;;;;5013361;28;20400;-88
2023/02/27 05:06:58;;;;;;;3.53;3.22;;;;;;;;;;5014849;28;20868;-87
2023/02/27 05:09:33;;;;;;;4.50;4.10;;;;;;;;;;5014803;28;20431;-88
2023/02/27 05:12:03;;;;;;;3.97;3.67;;;;;;;;;;4987019;28;20384;-87
2023/02/27 05:14:35;;;;;;;4.50;4.10;;;;;;;;;;5007643;28;20394;-87
2023/02/27 05:17:27;;;;;;;3.50;3.20;;;;;;;;;;5014634;28;20391;-87
2023/02/27 05:19:53;;;;;;;3.25;2.97;;;;;;;;;;5009825;28;20471;-86
2023/02/27 05:22:23;;;;;;;3.67;3.40;;;;;;;;;;5001305;28;20877;-88
2023/02/27 05:24:54;;;;;;;3.58;3.20;;;;;;;;;;5014295;28;20401;-87
2023/02/27 05:27:33;;;;;;;3.65;3.30;;;;;;;;;;5014549;28;20456;-89
2023/02/27 05:30:02;;;;;;;3.70;3.40;;;;;;;;;;5014792;28;20404;-87
2023/02/27 05:32:38;;;;;;;4.03;3.63;;;;;;;;;;5011348;28;20790;-88
2023/02/27 05:35:04;;;;;;;3.55;3.25;;;;;;;;;;5014509;28;20392;-88
2023/02/27 05:37:35;;;;;;;3.30;3.00;;;;;;;;;;5014486;28;20476;-90
2023/02/27 05:40:07;;;;;;;4.10;3.35;;;;;;;;;;5002850;28;20399;-88
2023/02/27 05:42:36;;;;;;;3.55;3.25;;;;;;;;;;5009068;28;20388;-87
2023/02/27 05:45:08;;;;;;;3.40;3.10;;;;;;;;;;4994900;28;20459;-87
2023/02/27 05:47:36;;;;;;;3.58;3.28;;;;;;;;;;4981995;28;20391;-87
2023/02/27 05:50:02;;;;;;;3.27;3.07;;;;;;;;;;4995993;28;20437;-87
2023/02/27 05:52:29;;;;;;;3.13;2.92;;;;;;;;;;5007506;28;20519;-87
2023/02/27 05:55:24;;;;;;;3.88;3.28;;;;;;;;;;5014301;28;20395;-86
2023/02/27 05:57:57;;;;;;;3.35;3.05;;;;;;;;;;4979742;28;20573;-88
2023/02/27 06:00:27;;;;;;;3.50;3.20;;;;;;;;;;5010414;28;21032;-87
2023/02/27 06:02:53;;;;;;;3.20;2.88;;;;;;;;;;5009112;28;20381;-86
2023/02/27 06:05:19;;;;;;;3.88;3.33;;;;;;;;;;5013714;28;20399;-87
2023/02/27 06:07:45;;;;;;;3.45;3.10;;;;;;;;;;5013751;28;20451;-88
2023/02/27 06:10:15;;;;;;;3.40;3.10;;;;;;;;;;4994115;28;20396;-88
2023/02/27 06:12:41;;;;;;;3.55;3.28;;;;;;;;;;5005703;28;20389;-88
2023/02/27 06:15:07;;;;;;;3.67;3.38;;;;;;;;;;5002080;28;20384;-88
2023/02/27 06:17:33;;;;;;;3.67;3.38;;;;;;;;;;5013641;28;20479;-88
2023/02/27 06:19:59;;;;;;;3.57;3.27;;;;;;;;;;5013677;28;20422;-87
2023/02/27 06:22:25;;;;;;;3.72;3.30;;;;;;;;;;5013833;28;20380;-88
2023/02/27 06:24:51;;;;;;;4.33;3.70;;;;;;;;;;5012768;28;20750;-88
2023/02/27 06:27:17;;;;;;;3.80;3.50;;;;;;;;;;4995216;28;20475;-87
2023/02/27 06:29:43;;;;;;;4.20;3.80;;;;;;;;;;5003940;28;20421;-87
2023/02/27 06:32:09;;;;;;;4.10;3.70;;;;;;;;;;5006973;28;20396;-87
2023/02/27 06:34:35;;;;;;;4.18;3.80;;;;;;;;;;5013467;28;20391;-87
2023/02/27 06:37:02;;;;;;;4.32;3.92;;;;;;;;;;5001053;28;20736;-87
2023/02/27 06:39:27;;;;;;;4.38;4.07;;;;;;;;;;4994798;28;20939;-86
2023/02/27 06:41:54;;;;;;;4.22;3.92;;;;;;;;;;5008071;28;20424;-87
2023/02/27 06:44:20;;;;;;;4.18;3.75;;;;;;;;;;5000623;28;20390;-87
2023/02/27 06:46:46;;;;;;;4.70;4.30;;;;;;;;;;5012715;28;20401;-86
2023/02/27 06:49:12;;;;;;;4.20;3.80;;;;;;;;;;5009857;28;20970;-84
2023/02/27 06:51:38;;;;;;;5.78;5.18;;;;;;;;;;5011832;28;20393;-84
2023/02/27 06:54:04;;;;;;;5.30;4.80;;;;;;;;;;5005410;28;20396;-82
2023/02/27 06:56:30;;;;;;;10.25;9.25;;;;;;;;;;4999879;28;20820;-79
2023/02/27 06:58:56;;;;;;;7.75;7.15;;;;;;;;;;4995053;28;20477;-79
2023/02/27 07:01:23;;;;;;;4.53;4.18;;;;;;;;;;5008405;28;20451;-79
2023/02/27 07:03:49;;;;;;;4.45;3.65;;;;;;;;;;5011960;28;20487;-80
2023/02/27 07:06:15;;;;;;;3.90;3.60;;;;;;;;;;5007549;28;20467;-80
2023/02/27 07:08:41;;;;;;;4.38;3.92;;;;;;;;;;5009203;28;20440;-79
2023/02/27 07:11:07;;;;;;;4.32;4.03;;;;;;;;;;5008792;28;20385;-78
2023/02/27 07:13:33;;;;;;;4.80;4.30;;;;;;;;;;4999841;28;20743;-78
2023/02/27 07:16:02;;;;;;;4.45;4.05;;;;;;;;;;5012437;28;20411;-80
2023/02/27 07:18:28;;;;;;;4.45;3.90;;;;;;;;;;5005792;28;20429;-79
2023/02/27 07:20:54;;;;;;;4.57;3.70;;;;;;;;;;5005278;28;20449;-79
2023/02/27 07:23:21;;;;;;;6.63;4.05;;;;;;;;;;5011807;28;20385;-79
2023/02/27 07:25:47;;;;;;;4.38;3.97;;;;;;;;;;5001114;28;20397;-80
2023/02/27 07:28:13;;;;;;;6.30;4.50;;;;;;;;;;5010482;28;20440;-79
2023/02/27 07:30:40;;;;;;;5.18;4.30;;;;;;;;;;5011876;28;20474;-79
2023/02/27 07:33:06;;;;;;;4.70;4.30;;;;;;;;;;5011998;28;20707;-79
2023/02/27 07:35:32;;;;;;;4.55;4.05;;;;;;;;;;5011884;28;20738;-79
2023/02/27 07:37:58;;;;;;;4.50;4.10;;;;;;;;;;5008293;28;20381;-79
2023/02/27 07:40:24;;;;;;;4.60;4.20;;;;;;;;;;5006347;28;20451;-78
2023/02/27 07:42:50;;;;;;;4.38;4.07;;;;;;;;;;5012029;28;20415;-79
2023/02/27 07:45:19;;;;;;;4.20;3.80;;;;;;;;;;5008088;28;20429;-79
2023/02/27 07:47:45;;;;;;;4.20;3.80;;;;;;;;;;5013778;28;20439;-79
2023/02/27 07:50:12;;;;;;;4.30;3.88;;;;;;;;;;5015089;28;20399;-80
2023/02/27 07:52:42;;;;;;;5.57;5.07;;;;;;;;;;5012536;28;20408;-78
2023/02/27 07:55:08;;;;;;;4.47;4.07;;;;;;;;;;5012107;28;20427;-80
2023/02/27 07:57:34;;;;;;;4.43;4.03;;;;;;;;;;5012672;28;20892;-81
2023/02/27 08:00:00;;;;;;;4.60;4.20;;;;;;;;;;5006431;28;20475;-80
2023/02/27 08:02:26;;;;;;;4.75;4.35;;;;;;;;;;5012053;28;20522;-80
2023/02/27 08:04:52;;;;;;;4.55;3.90;;;;;;;;;;5011797;28;20393;-80
2023/02/27 08:07:18;;;;;;;4.22;3.90;;;;;;;;;;5011424;28;20404;-81
2023/02/27 08:09:44;;;;;;;4.47;4.07;;;;;;;;;;5011550;28;20424;-80
2023/02/27 08:12:10;;;;;;;4.40;4.00;;;;;;;;;;5011999;28;20404;-79
2023/02/27 08:14:37;;;;;;;4.25;3.75;;;;;;;;;;5011840;28;20396;-79
2023/02/27 08:17:03;;;;;;;4.20;3.90;;;;;;;;;;5012014;28;20392;-79
2023/02/27 08:19:29;;;;;;;5.10;4.60;;;;;;;;;;5011753;28;20385;-80
2023/02/27 08:21:55;;;;;;;4.40;4.00;;;;;;;;;;4990460;28;20389;-80
2023/02/27 08:24:21;;;;;;;4.50;4.10;;;;;;;;;;5011524;28;20407;-80
2023/02/27 08:26:47;;;;;;;4.60;4.20;;;;;;;;;;5011087;28;20392;-79
2023/02/27 08:29:13;;;;;;;4.60;4.20;;;;;;;;;;5011364;28;20428;-79
2023/02/27 08:31:39;;;;;;;4.30;3.90;;;;;;;;;;5011485;28;20384;-79
2023/02/27 08:34:06;;;;;;;5.10;4.32;;;;;;;;;;5011585;28;20762;-79
2023/02/27 08:36:32;;;;;;;4.17;3.87;;;;;;;;;;5011608;28;20726;-79
2023/02/27 08:38:58;;;;;;;4.40;4.00;;;;;;;;;;5011441;28;20447;-79
2023/02/27 08:41:24;;;;;;;4.47;4.07;;;;;;;;;;5011600;28;20397;-80
2023/02/27 08:43:50;;;;;;;4.75;4.25;;;;;;;;;;4997588;28;20391;-80
2023/02/27 08:46:15;;;;;;;4.03;3.73;;;;;;;;;;4999610;28;20392;-79
2023/02/27 08:48:42;;;;;;;4.47;4.07;;;;;;;;;;5011397;28;20881;-79
2023/02/27 08:51:08;;;;;;;4.70;4.30;;;;;;;;;;5011015;28;20468;-79
2023/02/27 08:53:34;;;;;;;4.20;3.90;;;;;;;;;;5011143;28;20872;-80
2023/02/27 08:56:00;;;;;;;4.70;4.05;;;;;;;;;;5011219;28;20399;-79
2023/02/27 08:58:27;;;;;;;4.00;3.70;;;;;;;;;;5014855;28;20430;-80
2023/02/27 09:00:53;;;;;;;4.85;4.45;;;;;;;;;;5014750;28;20395;-80
2023/02/27 09:03:20;;;;;;;5.47;4.47;;;;;;;;;;5014825;28;20393;-79
2023/02/27 09:05:47;;;;;;;4.13;3.83;;;;;;;;;;4996949;28;20775;-79
2023/02/27 09:08:13;;;;;;;4.57;4.20;;;;;;;;;;5014640;28;20412;-80
2023/02/27 09:10:39;;;;;;;3.97;3.67;;;;;;;;;;5014750;28;20495;-79
2023/02/27 09:13:05;;;;;;;4.07;3.67;;;;;;;;;;5014429;28;20436;-79
2023/02/27 09:15:33;;;;;;;4.53;3.90;;;;;;;;;;5006228;28;20396;-80
2023/02/27 09:18:01;;;;;;;4.05;3.75;;;;;;;;;;5014721;28;20484;-80
2023/02/27 09:20:28;;;;;;;5.47;4.10;;;;;;;;;;5004422;28;20419;-80
2023/02/27 09:22:54;;;;;;;4.90;4.40;;;;;;;;;;4995507;28;20465;-81
2023/02/27 09:25:20;;;;;;;7.13;4.20;;;;;;;;;;5014296;28;20816;-80
2023/02/27 09:27:46;;;;;;;5.50;5.00;;;;;;;;;;5001678;28;20419;-80
2023/02/27 09:30:12;;;;;;;5.00;4.50;;;;;;;;;;4996277;28;20402;-81
2023/02/27 09:32:38;;;;;;;4.75;4.35;;;;;;;;;;4995398;28;21244;-80
2023/02/27 09:35:04;;;;;;;5.63;4.47;;;;;;;;;;4995322;28;20452;-80
2023/02/27 09:37:30;;;;;;;7.57;6.88;;;;;;;;;;4995283;28;20391;-81
2023/02/27 09:39:56;;;;;;;4.73;4.17;;;;;;;;;;5003303;28;20468;-81
2023/02/27 09:42:25;;;;;;;5.05;4.60;;;;;;;;;;4999067;28;20389;-80
2023/02/27 09:44:52;;;;;;;4.50;4.10;;;;;;;;;;5001546;28;20409;-80
2023/02/27 09:47:23;;;;;;;5.38;4.30;;;;;;;;;;5001477;28;20932;-80
2023/02/27 09:49:52;;;;;;;4.30;4.00;;;;;;;;;;5011425;28;20432;-81
2023/02/27 09:52:18;;;;;;;5.07;3.90;;;;;;;;;;5004181;28;20392;-80
2023/02/27 09:54:44;;;;;;;5.05;4.50;;;;;;;;;;5009475;28;20925;-81
2023/02/27 09:57:14;;;;;;;4.65;4.25;;;;;;;;;;5009595;28;20391;-80
2023/02/27 09:59:51;;;;;;;5.70;4.38;;;;;;;;;;5011816;28;20734;-80
2023/02/27 10:02:32;;;;;;;4.53;4.13;;;;;;;;;;5011713;28;20380;-80
2023/02/27 10:05:34;;;;;;;4.80;4.40;;;;;;;;;;5003509;28;20738;-80
2023/02/27 10:08:16;;;;;;;4.68;4.15;;;;;;;;;;4911795;29;20424;-80
2023/02/27 10:10:49;;;;;;;4.75;4.32;;;;;;;;;;4998931;28;20438;-80
2023/02/27 10:13:15;;;;;;;5.18;4.30;;;;;;;;;;5011612;28;20388;-80
2023/02/27 10:15:45;;;;;;;4.25;3.92;;;;;;;;;;5011255;28;20396;-80
2023/02/27 10:18:31;;;;;;;4.25;3.85;;;;;;;;;;5000967;28;20471;-80
2023/02/27 10:21:00;;;;;;;5.28;4.57;;;;;;;;;;4995732;28;20443;-80
2023/02/27 10:23:49;;;;;;;4.45;4.05;;;;;;;;;;4997609;28;20790;-80
2023/02/27 10:26:19;;;;;;;5.32;4.03;;;;;;;;;;5003085;28;20398;-81
2023/02/27 10:28:45;;;;;;;4.70;4.30;;;;;;;;;;5011936;28;20493;-80
2023/02/27 10:31:19;;;;;;;4.30;3.90;;;;;;;;;;5012979;28;20459;-80
2023/02/27 10:33:46;;;;;;;5.20;4.55;;;;;;;;;;5013246;28;20458;-80
2023/02/27 10:36:13;;;;;;;5.40;4.90;;;;;;;;;;5012759;28;20440;-79
2023/02/27 10:38:39;;;;;;;16.25;10.30;;;;;;;;;;4998674;28;20423;-80
2023/02/27 10:41:07;;;;;;;5.47;4.60;;;;;;;;;;5003696;28;20414;-80
2023/02/27 10:43:33;;;;;;;5.32;4.25;;;;;;;;;;5009222;28;20385;-80
2023/02/27 10:46:02;;;;;;;5.30;4.30;;;;;;;;;;5000971;28;20942;-80
2023/02/27 10:48:31;;;;;;;5.07;4.45;;;;;;;;;;5007159;28;20420;-80
2023/02/27 10:51:17;;;;;;;4.93;4.53;;;;;;;;;;5010803;28;20397;-80
2023/02/27 10:53:43;;;;;;;4.88;4.43;;;;;;;;;;5011879;28;20425;-80
2023/02/27 10:56:13;;;;;;;4.40;3.97;;;;;;;;;;5012559;28;20407;-79
2023/02/27 10:58:39;;;;;;;4.80;4.40;;;;;;;;;;4994838;28;20438;-80
2023/02/27 11:01:12;;;;;;;4.72;4.25;;;;;;;;;;5012769;28;20865;-80
2023/02/27 11:03:39;;;;;;;4.50;4.10;;;;;;;;;;5012719;28;20401;-80
2023/02/27 11:06:08;;;;;;;4.68;4.10;;;;;;;;;;5013044;28;20377;-80
2023/02/27 11:08:34;;;;;;;5.38;4.00;;;;;;;;;;5012328;28;20927;-81
2023/02/27 11:11:00;;;;;;;5.37;4.13;;;;;;;;;;5012197;28;20388;-80
2023/02/27 11:13:28;;;;;;;4.53;4.13;;;;;;;;;;5012940;28;20388;-80
2023/02/27 11:16:06;;;;;;;4.55;4.15;;;;;;;;;;5015889;28;20392;-81
2023/02/27 11:18:33;;;;;;;5.85;4.03;;;;;;;;;;5014812;28;20437;-79
2023/02/27 11:21:11;;;;;;;4.50;3.88;;;;;;;;;;5014736;28;20393;-80
2023/02/27 11:23:37;;;;;;;4.20;3.90;;;;;;;;;;5009621;28;20906;-80
2023/02/27 11:26:11;;;;;;;4.30;3.90;;;;;;;;;;4996686;28;20398;-80
2023/02/27 11:28:37;;;;;;;3.83;3.53;;;;;;;;;;5012515;28;20483;-80
2023/02/27 11:31:13;;;;;;;4.05;3.60;;;;;;;;;;5011987;28;20878;-79
2023/02/27 11:33:47;;;;;;;4.72;4.28;;;;;;;;;;5007145;28;20408;-79
2023/02/27 11:36:13;;;;;;;5.53;4.20;;;;;;;;;;5012099;28;20455;-84
2023/02/27 11:38:39;;;;;;;3.80;3.50;;;;;;;;;;5012121;28;20463;-81
2023/02/27 11:41:06;;;;;;;4.30;3.90;;;;;;;;;;5003291;28;20483;-81
2023/02/27 11:43:32;;;;;;;4.07;3.50;;;;;;;;;;5012211;28;20471;-82
2023/02/27 11:45:59;;;;;;;4.18;3.78;;;;;;;;;;5012264;28;20495;-82
2023/02/27 11:48:45;;;;;;;3.57;3.23;;;;;;;;;;5008850;28;20420;-82
2023/02/27 11:51:20;;;;;;;4.65;3.70;;;;;;;;;;5011193;28;20397;-82
2023/02/27 11:53:49;;;;;;;5.90;3.50;;;;;;;;;;5011706;28;20511;-81
2023/02/27 11:56:21;;;;;;;4.05;3.40;;;;;;;;;;5011852;28;20483;-81
2023/02/27 11:58:51;;;;;;;3.75;3.45;;;;;;;;;;5011584;28;20387;-81
2023/02/27 12:01:41;;;;;;;5.03;3.80;;;;;;;;;;5007648;28;20425;-81
2023/02/27 12:04:19;;;;;;;4.35;3.70;;;;;;;;;;4986462;28;20446;-81
2023/02/27 12:06:49;;;;;;;4.00;3.60;;;;;;;;;;5012072;28;20471;-83
2023/02/27 12:09:34;;;;;;;4.10;3.70;;;;;;;;;;5011463;28;20417;-82
2023/02/27 12:12:02;;;;;;;4.97;4.03;;;;;;;;;;5007358;28;20478;-82
2023/02/27 12:14:37;;;;;;;5.10;3.75;;;;;;;;;;5011722;28;20385;-81
2023/02/27 12:17:09;;;;;;;4.25;3.85;;;;;;;;;;5003973;28;20452;-81
2023/02/27 12:19:41;;;;;;;5.53;4.53;;;;;;;;;;5011219;28;20389;-81
2023/02/27 12:22:17;;;;;;;5.20;4.10;;;;;;;;;;4997176;28;20926;-81
2023/02/27 12:24:54;;;;;;;4.47;4.07;;;;;;;;;;5011623;28;20430;-82
2023/02/27 12:27:20;;;;;;;4.53;4.10;;;;;;;;;;5011331;28;20392;-83
2023/02/27 12:29:50;;;;;;;4.70;4.00;;;;;;;;;;4993523;28;20479;-82
2023/02/27 12:32:21;;;;;;;4.65;4.05;;;;;;;;;;5013677;28;20411;-81
2023/02/27 12:34:49;;;;;;;4.30;3.90;;;;;;;;;;5015354;28;20381;-82
2023/02/27 12:37:22;;;;;;;8.02;5.07;;;;;;;;;;5015434;28;20396;-81
2023/02/27 12:39:49;;;;;;;4.13;3.60;;;;;;;;;;5015214;28;20537;-81
2023/02/27 12:42:32;;;;;;;4.43;3.60;;;;;;;;;;5008748;28;20892;-81
2023/02/27 12:44:58;;;;;;;4.55;4.10;;;;;;;;;;5015531;28;20908;-80
2023/02/27 12:47:39;;;;;;;6.70;6.00;;;;;;;;;;5014778;28;20869;-81
2023/02/27 12:50:16;;;;;;;6.32;5.75;;;;;;;;;;5014688;28;20455;-82
2023/02/27 12:52:56;;;;;;;5.10;3.97;;;;;;;;;;5015101;28;20385;-82
2023/02/27 12:55:22;;;;;;;4.23;3.83;;;;;;;;;;5009509;28;20484;-85
2023/02/27 12:57:48;;;;;;;4.10;3.70;;;;;;;;;;5013829;28;20388;-82
2023/02/27 13:00:17;;;;;;;4.55;4.15;;;;;;;;;;5013887;28;20385;-82
2023/02/27 13:02:49;;;;;;;3.65;3.38;;;;;;;;;;5015063;28;20495;-81
2023/02/27 13:05:25;;;;;;;4.47;3.70;;;;;;;;;;5004785;28;20473;-82
2023/02/27 13:08:17;;;;;;;4.07;3.70;;;;;;;;;;5003736;28;20441;-83
2023/02/27 13:10:53;;;;;;;3.87;3.47;;;;;;;;;;4974264;28;20420;-83
2023/02/27 13:13:19;;;;;;;6.53;5.85;;;;;;;;;;5002785;28;20433;-83
2023/02/27 13:16:09;;;;;;;6.90;4.00;;;;;;;;;;5014031;28;20797;-84
2023/02/27 13:18:53;;;;;;;4.57;3.55;;;;;;;;;;4968670;28;20730;-85
2023/02/27 13:21:33;;;;;;;4.20;3.80;;;;;;;;;;5005786;28;20393;-83
2023/02/27 13:24:02;;;;;;;3.88;3.42;;;;;;;;;;5006586;28;21167;-86
2023/02/27 13:26:36;;;;;;;5.65;4.95;;;;;;;;;;5013110;28;20417;-87
2023/02/27 13:29:02;;;;;;;9.65;7.20;;;;;;;;;;5014371;28;20485;-86
2023/02/27 13:31:39;;;;;;;7.65;6.32;;;;;;;;;;5014308;28;20842;-86
2023/02/27 13:34:09;;;;;;;9.15;7.68;;;;;;;;;;5013468;28;20770;-86
2023/02/27 13:36:43;;;;;;;6.13;5.10;;;;;;;;;;5014410;28;20869;-86
2023/02/27 13:39:28;;;;;;;6.93;6.28;;;;;;;;;;5014355;28;20431;-87
2023/02/27 13:41:54;;;;;;;4.30;3.80;;;;;;;;;;5013909;28;20868;-86
2023/02/27 13:44:20;;;;;;;4.85;4.30;;;;;;;;;;5008017;28;20405;-86
2023/02/27 13:46:46;;;;;;;4.68;3.70;;;;;;;;;;5013968;28;20798;-86
2023/02/27 13:49:12;;;;;;;4.30;3.70;;;;;;;;;;5013959;28;20421;-86
2023/02/27 13:51:38;;;;;;;3.70;3.22;;;;;;;;;;5013672;28;20389;-87
2023/02/27 13:54:13;;;;;;;4.00;3.60;;;;;;;;;;5013841;28;20425;-87
2023/02/27 13:56:41;;;;;;;3.40;3.10;;;;;;;;;;5014061;28;20394;-86
2023/02/27 13:59:38;;;;;;;3.35;3.05;;;;;;;;;;5014027;28;20457;-86
2023/02/27 14:02:04;;;;;;;3.70;3.40;;;;;;;;;;4993749;28;20462;-85
2023/02/27 14:04:32;;;;;;;3.80;3.37;;;;;;;;;;5013654;28;20388;-86
2023/02/27 14:06:59;;;;;;;3.88;3.47;;;;;;;;;;5013659;28;20398;-86
2023/02/27 14:09:25;;;;;;;3.80;3.50;;;;;;;;;;5013258;28;20457;-87
2023/02/27 14:11:56;;;;;;;3.45;3.15;;;;;;;;;;5013575;28;20798;-86
2023/02/27 14:14:43;;;;;;;3.90;3.45;;;;;;;;;;5010235;28;20389;-86
2023/02/27 14:17:10;;;;;;;5.20;3.33;;;;;;;;;;5013849;28;20381;-86
2023/02/27 14:19:39;;;;;;;4.82;3.60;;;;;;;;;;5013458;28;20388;-86
2023/02/27 14:22:08;;;;;;;3.83;3.53;;;;;;;;;;5013077;28;20438;-86
2023/02/27 14:24:39;;;;;;;4.95;3.70;;;;;;;;;;5013097;28;20393;-85
2023/02/27 14:27:14;;;;;;;3.90;3.50;;;;;;;;;;5013314;28;20377;-85
2023/02/27 14:29:42;;;;;;;3.70;3.40;;;;;;;;;;5013129;28;20428;-85
2023/02/27 14:32:16;;;;;;;3.65;3.30;;;;;;;;;;5013406;28;20392;-85
2023/02/27 14:34:42;;;;;;;5.25;3.60;;;;;;;;;;4996057;28;20793;-86
2023/02/27 14:37:10;;;;;;;5.70;3.70;;;;;;;;;;5019365;28;20420;-86
2023/02/27 14:39:37;;;;;;;4.00;3.60;;;;;;;;;;5019443;28;20431;-86
2023/02/27 14:42:06;;;;;;;4.47;4.10;;;;;;;;;;5021256;28;20416;-85
2023/02/27 14:44:52;;;;;;;4.13;3.50;;;;;;;;;;5005278;28;20968;-85
2023/02/27 14:47:23;;;;;;;3.87;3.40;;;;;;;;;;5020381;28;20380;-86
2023/02/27 14:49:49;;;;;;;4.88;3.75;;;;;;;;;;5012628;28;20477;-85
2023/02/27 14:52:23;;;;;;;4.10;3.70;;;;;;;;;;5013554;28;20389;-85
2023/02/27 14:54:50;;;;;;;4.35;3.92;;;;;;;;;;5012613;28;20554;-85
2023/02/27 14:57:17;;;;;;;3.80;3.50;;;;;;;;;;5013016;28;20385;-87
2023/02/27 14:59:45;;;;;;;3.72;3.42;;;;;;;;;;5013080;28;20392;-86
2023/02/27 15:02:20;;;;;;;3.95;3.60;;;;;;;;;;5004483;28;20473;-86